sensor_id;sensor_type;location;lat;lon;timestamp;pressure;altitude;pressure_sealevel;temperature;humidity
59315;BME280;46521;50.160;20.802;2023-07-20T00:08:56;98823.08;;;20.08;59.29
59315;BME280;46521;50.160;20.802;2023-07-20T00:18:59;98801.16;;;20.16;59.25
59315;BME280;46521;50.160;20.802;2023-07-20T00:29:01;98799.14;;;20.28;59.11
59315;BME280;46521;50.160;20.802;2023-07-20T00:39:03;98796.20;;;20.30;59.37
59315;BME280;46521;50.160;20.802;2023-07-20T00:49:04;98803.00;;;20.38;59.24
59315;BME280;46521;50.160;20.802;2023-07-20T00:59:07;98790.63;;;20.37;58.94
59315;BME280;46521;50.160;20.802;2023-07-20T01:09:15;98795.20;;;20.36;59.16
59315;BME280;46521;50.160;20.802;2023-07-20T01:19:19;98792.02;;;20.17;59.55
59315;BME280;46521;50.160;20.802;2023-07-20T01:39:43;98788.03;;;20.20;59.76
59315;BME280;46521;50.160;20.802;2023-07-20T01:49:45;98796.79;;;20.10;59.94
59315;BME280;46521;50.160;20.802;2023-07-20T01:59:47;98800.98;;;20.01;60.05
59315;BME280;46521;50.160;20.802;2023-07-20T02:09:48;98783.99;;;19.95;60.18
59315;BME280;46521;50.160;20.802;2023-07-20T02:19:53;98811.52;;;19.85;60.01
59315;BME280;46521;50.160;20.802;2023-07-20T02:29:55;98817.38;;;19.43;60.54
59315;BME280;46521;50.160;20.802;2023-07-20T02:39:57;98832.11;;;19.06;60.88
59315;BME280;46521;50.160;20.802;2023-07-20T02:49:59;98822.44;;;19.05;61.36
59315;BME280;46521;50.160;20.802;2023-07-20T03:00:02;98842.03;;;19.06;61.53
59315;BME280;46521;50.160;20.802;2023-07-20T03:10:05;98848.99;;;19.07;62.16
59315;BME280;46521;50.160;20.802;2023-07-20T03:20:11;98837.23;;;19.08;62.53
59315;BME280;46521;50.160;20.802;2023-07-20T03:30:13;98821.22;;;19.13;62.52
59315;BME280;46521;50.160;20.802;2023-07-20T03:40:15;98835.52;;;19.02;62.75
59315;BME280;46521;50.160;20.802;2023-07-20T03:50:17;98861.33;;;18.91;63.05
59315;BME280;46521;50.160;20.802;2023-07-20T04:00:19;98858.58;;;19.20;63.69
59315;BME280;46521;50.160;20.802;2023-07-20T04:10:20;98913.39;;;19.12;63.68
59315;BME280;46521;50.160;20.802;2023-07-20T04:20:23;98981.42;;;18.82;63.90
59315;BME280;46521;50.160;20.802;2023-07-20T04:30:24;98962.75;;;18.59;64.53
59315;BME280;46521;50.160;20.802;2023-07-20T04:40:26;98967.83;;;18.19;65.06
59315;BME280;46521;50.160;20.802;2023-07-20T04:50:28;99011.58;;;17.90;65.67
59315;BME280;46521;50.160;20.802;2023-07-20T05:00:30;98963.67;;;18.00;66.43
59315;BME280;46521;50.160;20.802;2023-07-20T05:10:31;98988.69;;;18.06;66.54
59315;BME280;46521;50.160;20.802;2023-07-20T05:20:36;98983.80;;;18.03;66.75
59315;BME280;46521;50.160;20.802;2023-07-20T05:30:38;99004.50;;;18.31;66.34
59315;BME280;46521;50.160;20.802;2023-07-20T05:40:41;99050.22;;;18.41;65.99
59315;BME280;46521;50.160;20.802;2023-07-20T05:50:46;99057.33;;;18.35;66.42
59315;BME280;46521;50.160;20.802;2023-07-20T06:00:48;99076.63;;;18.49;66.49
59315;BME280;46521;50.160;20.802;2023-07-20T06:10:50;99071.12;;;18.91;65.59
59315;BME280;46521;50.160;20.802;2023-07-20T06:20:55;99061.70;;;18.89;66.21
59315;BME280;46521;50.160;20.802;2023-07-20T06:31:01;99038.89;;;19.44;65.64
59315;BME280;46521;50.160;20.802;2023-07-20T06:41:03;99043.81;;;19.81;65.14
59315;BME280;46521;50.160;20.802;2023-07-20T06:51:04;99060.23;;;20.97;64.38
59315;BME280;46521;50.160;20.802;2023-07-20T07:01:07;99048.89;;;21.66;62.71
59315;BME280;46521;50.160;20.802;2023-07-20T07:11:09;99043.19;;;21.63;62.19
59315;BME280;46521;50.160;20.802;2023-07-20T07:21:11;99063.16;;;21.99;61.73
59315;BME280;46521;50.160;20.802;2023-07-20T07:31:15;99065.27;;;21.97;61.35
59315;BME280;46521;50.160;20.802;2023-07-20T07:41:16;99088.50;;;22.89;60.09
59315;BME280;46521;50.160;20.802;2023-07-20T07:51:18;99093.85;;;22.83;59.32
59315;BME280;46521;50.160;20.802;2023-07-20T08:01:20;99110.20;;;23.14;58.89
59315;BME280;46521;50.160;20.802;2023-07-20T08:11:23;99106.05;;;22.43;59.07
59315;BME280;46521;50.160;20.802;2023-07-20T08:21:31;99129.00;;;22.19;58.76
59315;BME280;46521;50.160;20.802;2023-07-20T08:31:33;99122.49;;;22.47;58.53
59315;BME280;46521;50.160;20.802;2023-07-20T08:41:35;99128.36;;;22.81;57.56
59315;BME280;46521;50.160;20.802;2023-07-20T08:51:38;99126.91;;;22.26;57.39
59315;BME280;46521;50.160;20.802;2023-07-20T09:01:41;99122.09;;;22.71;57.63
59315;BME280;46521;50.160;20.802;2023-07-20T09:11:46;99138.13;;;23.66;56.88
59315;BME280;46521;50.160;20.802;2023-07-20T09:21:52;99129.28;;;24.43;55.75
59315;BME280;46521;50.160;20.802;2023-07-20T09:32:02;99115.06;;;25.08;55.57
59315;BME280;46521;50.160;20.802;2023-07-20T09:42:04;99116.69;;;25.09;54.16
59315;BME280;46521;50.160;20.802;2023-07-20T10:02:33;99112.55;;;24.25;53.40
59315;BME280;46521;50.160;20.802;2023-07-20T10:12:35;99109.05;;;24.09;53.93
59315;BME280;46521;50.160;20.802;2023-07-20T10:22:36;99101.64;;;23.43;54.04
59315;BME280;46521;50.160;20.802;2023-07-20T10:32:40;99101.91;;;22.73;54.21
59315;BME280;46521;50.160;20.802;2023-07-20T10:42:43;99095.56;;;23.05;54.82
59315;BME280;46521;50.160;20.802;2023-07-20T10:53:04;99091.15;;;23.52;54.49
59315;BME280;46521;50.160;20.802;2023-07-20T11:03:06;99088.72;;;24.69;53.20
59315;BME280;46521;50.160;20.802;2023-07-20T11:13:21;99090.12;;;24.04;53.40
59315;BME280;46521;50.160;20.802;2023-07-20T11:23:27;99079.81;;;23.50;53.95
59315;BME280;46521;50.160;20.802;2023-07-20T11:33:30;99068.76;;;23.82;53.00
59315;BME280;46521;50.160;20.802;2023-07-20T11:43:31;99079.02;;;23.60;52.64
59315;BME280;46521;50.160;20.802;2023-07-20T11:53:33;99053.38;;;24.34;51.68
59315;BME280;46521;50.160;20.802;2023-07-20T12:03:35;99065.56;;;23.96;51.80
59315;BME280;46521;50.160;20.802;2023-07-20T12:13:42;99044.38;;;24.64;50.79
59315;BME280;46521;50.160;20.802;2023-07-20T12:23:45;99048.08;;;24.89;50.64
59315;BME280;46521;50.160;20.802;2023-07-20T12:33:46;99034.88;;;25.32;49.88
59315;BME280;46521;50.160;20.802;2023-07-20T12:43:48;99027.25;;;25.40;49.16
59315;BME280;46521;50.160;20.802;2023-07-20T12:53:51;99020.64;;;25.11;48.57
59315;BME280;46521;50.160;20.802;2023-07-20T13:03:52;99022.13;;;25.38;47.79
59315;BME280;46521;50.160;20.802;2023-07-20T13:13:55;99027.64;;;25.17;48.03
59315;BME280;46521;50.160;20.802;2023-07-20T13:23:57;99027.16;;;25.05;47.55
59315;BME280;46521;50.160;20.802;2023-07-20T13:33:58;99026.19;;;25.35;47.63
59315;BME280;46521;50.160;20.802;2023-07-20T13:44:02;99014.06;;;25.67;47.68
59315;BME280;46521;50.160;20.802;2023-07-20T13:54:13;99007.77;;;25.72;47.09
59315;BME280;46521;50.160;20.802;2023-07-20T14:14:54;99025.41;;;25.25;45.67
59315;BME280;46521;50.160;20.802;2023-07-20T14:24:57;99022.75;;;24.64;46.67
59315;BME280;46521;50.160;20.802;2023-07-20T14:35:01;99015.47;;;24.55;46.17
59315;BME280;46521;50.160;20.802;2023-07-20T14:45:04;99085.01;;;24.08;46.93
59315;BME280;46521;50.160;20.802;2023-07-20T14:55:07;99090.25;;;23.15;49.52
59315;BME280;46521;50.160;20.802;2023-07-20T15:05:09;99089.47;;;22.67;50.73
59315;BME280;46521;50.160;20.802;2023-07-20T15:15:12;99079.89;;;22.92;51.41
59315;BME280;46521;50.160;20.802;2023-07-20T15:25:14;99088.14;;;23.28;51.70
59315;BME280;46521;50.160;20.802;2023-07-20T15:35:16;99077.34;;;23.28;51.52
59315;BME280;46521;50.160;20.802;2023-07-20T15:45:18;99084.65;;;23.43;51.13
59315;BME280;46521;50.160;20.802;2023-07-20T15:55:20;99084.11;;;23.41;50.91
59315;BME280;46521;50.160;20.802;2023-07-20T16:05:22;99087.08;;;23.34;50.25
59315;BME280;46521;50.160;20.802;2023-07-20T16:15:23;99100.63;;;22.91;50.77
59315;BME280;46521;50.160;20.802;2023-07-20T16:25:27;99102.41;;;22.65;51.39
59315;BME280;46521;50.160;20.802;2023-07-20T16:35:41;99111.02;;;22.62;51.77
59315;BME280;46521;50.160;20.802;2023-07-20T16:45:43;99137.55;;;22.43;52.08
59315;BME280;46521;50.160;20.802;2023-07-20T16:55:48;99135.70;;;22.48;52.48
59315;BME280;46521;50.160;20.802;2023-07-20T17:05:52;99165.89;;;22.50;52.31
59315;BME280;46521;50.160;20.802;2023-07-20T17:15:53;99200.98;;;21.74;52.44
59315;BME280;46521;50.160;20.802;2023-07-20T17:25:55;99171.73;;;20.72;53.99
59315;BME280;46521;50.160;20.802;2023-07-20T17:35:57;99177.64;;;20.40;55.07
59315;BME280;46521;50.160;20.802;2023-07-20T17:57:16;99208.33;;;20.27;56.94
59315;BME280;46521;50.160;20.802;2023-07-20T18:07:18;99215.34;;;19.99;57.36
59315;BME280;46521;50.160;20.802;2023-07-20T18:17:20;99219.77;;;19.77;58.09
59315;BME280;46521;50.160;20.802;2023-07-20T18:27:21;99220.38;;;19.55;58.76
59315;BME280;46521;50.160;20.802;2023-07-20T18:37:23;99226.36;;;19.45;59.27
59315;BME280;46521;50.160;20.802;2023-07-20T18:47:25;99244.57;;;19.32;59.83
59315;BME280;46521;50.160;20.802;2023-07-20T18:57:27;99254.72;;;19.18;60.26
59315;BME280;46521;50.160;20.802;2023-07-20T19:07:28;99269.30;;;18.98;60.75
59315;BME280;46521;50.160;20.802;2023-07-20T19:17:31;99283.11;;;18.83;61.32
59315;BME280;46521;50.160;20.802;2023-07-20T19:27:32;99282.88;;;18.73;61.74
59315;BME280;46521;50.160;20.802;2023-07-20T19:37:34;99283.34;;;18.70;62.21
59315;BME280;46521;50.160;20.802;2023-07-20T19:47:36;99283.08;;;18.60;62.55
59315;BME280;46521;50.160;20.802;2023-07-20T19:57:38;99296.96;;;18.68;62.58
59315;BME280;46521;50.160;20.802;2023-07-20T20:07:39;99289.61;;;18.64;62.85
59315;BME280;46521;50.160;20.802;2023-07-20T20:17:41;99316.29;;;18.70;63.73
59315;BME280;46521;50.160;20.802;2023-07-20T20:27:43;99319.06;;;19.06;63.39
59315;BME280;46521;50.160;20.802;2023-07-20T20:37:45;99330.01;;;19.16;63.38
59315;BME280;46521;50.160;20.802;2023-07-20T20:47:47;99324.88;;;19.15;63.65
59315;BME280;46521;50.160;20.802;2023-07-20T20:57:49;99331.88;;;19.27;63.83
59315;BME280;46521;50.160;20.802;2023-07-20T21:07:53;99350.64;;;19.27;63.79
59315;BME280;46521;50.160;20.802;2023-07-20T21:17:55;99350.27;;;19.12;63.80
59315;BME280;46521;50.160;20.802;2023-07-20T21:27:56;99339.33;;;19.02;63.73
59315;BME280;46521;50.160;20.802;2023-07-20T21:37:58;99348.67;;;18.81;63.85
59315;BME280;46521;50.160;20.802;2023-07-20T21:47:59;99374.77;;;18.73;64.25
59315;BME280;46521;50.160;20.802;2023-07-20T21:58:01;99361.42;;;18.55;63.97
59315;BME280;46521;50.160;20.802;2023-07-20T22:08:03;99363.03;;;18.26;64.74
59315;BME280;46521;50.160;20.802;2023-07-20T22:18:04;99352.29;;;18.14;64.80
59315;BME280;46521;50.160;20.802;2023-07-20T22:28:06;99355.05;;;18.07;65.06
59315;BME280;46521;50.160;20.802;2023-07-20T22:38:08;99354.89;;;18.02;65.16
59315;BME280;46521;50.160;20.802;2023-07-20T22:48:10;99347.70;;;18.03;65.03
59315;BME280;46521;50.160;20.802;2023-07-20T22:58:12;99349.95;;;17.80;64.53
59315;BME280;46521;50.160;20.802;2023-07-20T23:08:14;99339.86;;;17.64;64.89
59315;BME280;46521;50.160;20.802;2023-07-20T23:18:15;99333.52;;;17.58;65.48
59315;BME280;46521;50.160;20.802;2023-07-20T23:28:17;99352.91;;;17.54;65.11
59315;BME280;46521;50.160;20.802;2023-07-20T23:38:19;99344.00;;;17.41;65.28
59315;BME280;46521;50.160;20.802;2023-07-20T23:48:21;99336.09;;;17.28;65.21
